sensor_id;sensor_type;location;lat;lon;timestamp;pressure;altitude;pressure_sealevel;temperature;humidity
69198;BME280;56311;50.298;8.514;2023-05-21T08:44:01;97580.0;;;20.2;83.2
69198;BME280;56311;50.298;8.514;2023-05-21T08:46:02;97580.0;;;20.2;87.2
69198;BME280;56311;50.298;8.514;2023-05-21T08:48:00;97580.0;;;20.2;85.9
69198;BME280;56311;50.298;8.514;2023-05-21T08:50:02;97580.0;;;20.3;84.3
69198;BME280;56311;50.298;8.514;2023-05-21T08:52:01;97580.0;;;20.4;82.0
69198;BME280;56311;50.298;8.514;2023-05-21T08:54:00;97580.0;;;20.6;84.5
69198;BME280;56311;50.298;8.514;2023-05-21T08:56:00;97580.0;;;20.8;83.0
69198;BME280;56311;50.298;8.514;2023-05-21T08:58:03;97570.0;;;20.9;83.2
69198;BME280;56311;50.298;8.514;2023-05-21T09:00:00;97570.0;;;20.9;83.3
69198;BME280;56311;50.298;8.514;2023-05-21T09:02:00;97570.0;;;21.0;80.2
69198;BME280;56311;50.298;8.514;2023-05-21T09:04:00;97570.0;;;21.1;77.4
69198;BME280;56311;50.298;8.514;2023-05-21T09:06:00;97570.0;;;21.1;81.1
69198;BME280;56311;50.298;8.514;2023-05-21T09:08:06;97570.0;;;21.1;76.2
69198;BME280;56311;50.298;8.514;2023-05-21T09:10:02;97570.0;;;21.0;76.4
69198;BME280;56311;50.298;8.514;2023-05-21T09:12:00;97560.0;;;21.2;77.0
69198;BME280;56311;50.298;8.514;2023-05-21T09:14:01;97560.0;;;21.4;76.8
69198;BME280;56311;50.298;8.514;2023-05-21T09:16:00;97560.0;;;21.3;75.5
69198;BME280;56311;50.298;8.514;2023-05-21T09:18:00;97560.0;;;21.5;76.6
69198;BME280;56311;50.298;8.514;2023-05-21T09:20:03;97560.0;;;21.5;74.2
69198;BME280;56311;50.298;8.514;2023-05-21T09:22:01;97560.0;;;21.6;75.9
69198;BME280;56311;50.298;8.514;2023-05-21T09:24:00;97570.0;;;21.7;74.0
69198;BME280;56311;50.298;8.514;2023-05-21T09:26:09;97560.0;;;21.8;72.4
69198;BME280;56311;50.298;8.514;2023-05-21T09:28:00;97560.0;;;21.9;75.0
69198;BME280;56311;50.298;8.514;2023-05-21T09:30:01;97570.0;;;22.1;78.5
69198;BME280;56311;50.298;8.514;2023-05-21T09:32:05;97560.0;;;22.0;73.0
69198;BME280;56311;50.298;8.514;2023-05-21T09:34:00;97560.0;;;21.8;73.2
69198;BME280;56311;50.298;8.514;2023-05-21T09:36:00;97560.0;;;21.8;72.3
69198;BME280;56311;50.298;8.514;2023-05-21T09:38:00;97560.0;;;22.1;77.7
69198;BME280;56311;50.298;8.514;2023-05-21T09:40:00;97560.0;;;22.2;74.1
69198;BME280;56311;50.298;8.514;2023-05-21T09:42:00;97570.0;;;22.0;73.2
69198;BME280;56311;50.298;8.514;2023-05-21T09:44:01;97570.0;;;22.0;72.2
69198;BME280;56311;50.298;8.514;2023-05-21T09:46:00;97560.0;;;22.2;70.9
69198;BME280;56311;50.298;8.514;2023-05-21T09:48:00;97560.0;;;22.4;71.4
69198;BME280;56311;50.298;8.514;2023-05-21T09:50:00;97570.0;;;22.6;74.8
69198;BME280;56311;50.298;8.514;2023-05-21T09:52:00;97560.0;;;22.5;72.7
69198;BME280;56311;50.298;8.514;2023-05-21T09:54:00;97560.0;;;22.5;72.0
69198;BME280;56311;50.298;8.514;2023-05-21T09:56:01;97560.0;;;22.4;70.6
69198;BME280;56311;50.298;8.514;2023-05-21T09:58:00;97560.0;;;22.4;74.9
69198;BME280;56311;50.298;8.514;2023-05-21T10:00:00;97560.0;;;22.3;69.6
69198;BME280;56311;50.298;8.514;2023-05-21T10:02:00;97570.0;;;22.5;75.8
69198;BME280;56311;50.298;8.514;2023-05-21T10:04:05;97560.0;;;22.3;76.3
69198;BME280;56311;50.298;8.514;2023-05-21T10:06:00;97570.0;;;22.3;78.7
69198;BME280;56311;50.298;8.514;2023-05-21T10:08:02;97570.0;;;22.1;76.1
69198;BME280;56311;50.298;8.514;2023-05-21T10:10:02;97570.0;;;22.2;73.4
69198;BME280;56311;50.298;8.514;2023-05-21T10:12:00;97560.0;;;22.1;73.4
69198;BME280;56311;50.298;8.514;2023-05-21T10:14:04;97560.0;;;22.2;71.4
69198;BME280;56311;50.298;8.514;2023-05-21T10:16:01;97560.0;;;22.5;72.7
69198;BME280;56311;50.298;8.514;2023-05-21T10:18:01;97560.0;;;22.5;72.6
69198;BME280;56311;50.298;8.514;2023-05-21T10:20:01;97560.0;;;22.6;72.4
69198;BME280;56311;50.298;8.514;2023-05-21T10:22:00;97550.0;;;22.3;69.5
69198;BME280;56311;50.298;8.514;2023-05-21T10:24:01;97550.0;;;22.5;74.6
69198;BME280;56311;50.298;8.514;2023-05-21T10:26:00;97550.0;;;22.7;76.0
69198;BME280;56311;50.298;8.514;2023-05-21T10:28:00;97540.0;;;22.8;73.0
69198;BME280;56311;50.298;8.514;2023-05-21T10:30:00;97550.0;;;23.1;71.4
69198;BME280;56311;50.298;8.514;2023-05-21T10:32:01;97540.0;;;23.4;69.7
69198;BME280;56311;50.298;8.514;2023-05-21T10:34:02;97540.0;;;23.1;67.5
69198;BME280;56311;50.298;8.514;2023-05-21T10:36:00;97540.0;;;23.4;68.4
69198;BME280;56311;50.298;8.514;2023-05-21T10:38:00;97540.0;;;22.9;67.6
69198;BME280;56311;50.298;8.514;2023-05-21T10:40:00;97540.0;;;23.1;69.1
69198;BME280;56311;50.298;8.514;2023-05-21T10:42:08;97540.0;;;23.0;68.2
69198;BME280;56311;50.298;8.514;2023-05-21T10:44:07;97540.0;;;23.2;66.7
69198;BME280;56311;50.298;8.514;2023-05-21T10:46:14;97530.0;;;23.4;66.0
69198;BME280;56311;50.298;8.514;2023-05-21T10:48:13;97530.0;;;23.6;66.0
69198;BME280;56311;50.298;8.514;2023-05-21T10:50:23;97530.0;;;23.4;66.6
69198;BME280;56311;50.298;8.514;2023-05-21T10:52:06;97530.0;;;23.9;66.2
69198;BME280;56311;50.298;8.514;2023-05-21T10:54:15;97530.0;;;24.1;64.6
69198;BME280;56311;50.298;8.514;2023-05-21T10:56:13;97530.0;;;24.5;64.2
69198;BME280;56311;50.298;8.514;2023-05-21T10:58:15;97520.0;;;24.7;63.0
69198;BME280;56311;50.298;8.514;2023-05-21T11:00:00;97520.0;;;24.4;61.2
69198;BME280;56311;50.298;8.514;2023-05-21T11:02:02;97520.0;;;24.4;64.7
69198;BME280;56311;50.298;8.514;2023-05-21T11:04:00;97520.0;;;24.9;62.6
69198;BME280;56311;50.298;8.514;2023-05-21T11:06:02;97520.0;;;25.1;60.6
69198;BME280;56311;50.298;8.514;2023-05-21T11:08:00;97520.0;;;25.1;60.4
69198;BME280;56311;50.298;8.514;2023-05-21T11:12:00;97520.0;;;25.6;60.9
69198;BME280;56311;50.298;8.514;2023-05-21T11:14:00;97520.0;;;25.5;61.6
69198;BME280;56311;50.298;8.514;2023-05-21T11:16:01;97520.0;;;25.4;61.0
69198;BME280;56311;50.298;8.514;2023-05-21T11:18:00;97520.0;;;25.3;59.2
69198;BME280;56311;50.298;8.514;2023-05-21T11:20:03;97520.0;;;25.6;63.1
69198;BME280;56311;50.298;8.514;2023-05-21T11:22:04;97520.0;;;25.4;58.6
69198;BME280;56311;50.298;8.514;2023-05-21T11:24:03;97520.0;;;25.6;56.3
69198;BME280;56311;50.298;8.514;2023-05-21T11:26:00;97520.0;;;25.2;57.7
69198;BME280;56311;50.298;8.514;2023-05-21T11:28:04;97510.0;;;25.1;57.0
69198;BME280;56311;50.298;8.514;2023-05-21T11:30:03;97510.0;;;25.6;56.7
69198;BME280;56311;50.298;8.514;2023-05-21T11:32:00;97510.0;;;25.5;58.9
69198;BME280;56311;50.298;8.514;2023-05-21T11:34:07;97510.0;;;25.5;59.2
69198;BME280;56311;50.298;8.514;2023-05-21T11:36:00;97510.0;;;25.3;60.6
69198;BME280;56311;50.298;8.514;2023-05-21T11:38:00;97500.0;;;25.4;57.6
69198;BME280;56311;50.298;8.514;2023-05-21T11:42:01;97500.0;;;25.3;58.5
69198;BME280;56311;50.298;8.514;2023-05-21T11:44:00;97500.0;;;25.0;57.6
69198;BME280;56311;50.298;8.514;2023-05-21T11:46:01;97500.0;;;24.8;60.0
69198;BME280;56311;50.298;8.514;2023-05-21T11:48:00;97500.0;;;24.8;61.2
69198;BME280;56311;50.298;8.514;2023-05-21T11:50:01;97500.0;;;24.9;62.6
69198;BME280;56311;50.298;8.514;2023-05-21T11:52:01;97510.0;;;24.6;60.7
69198;BME280;56311;50.298;8.514;2023-05-21T11:54:00;97500.0;;;24.2;60.3
69198;BME280;56311;50.298;8.514;2023-05-21T11:56:00;97500.0;;;24.2;61.4
69198;BME280;56311;50.298;8.514;2023-05-21T11:58:00;97500.0;;;24.4;61.3
69198;BME280;56311;50.298;8.514;2023-05-21T12:00:01;97500.0;;;24.7;60.2
69198;BME280;56311;50.298;8.514;2023-05-21T12:02:00;97500.0;;;24.8;60.9
69198;BME280;56311;50.298;8.514;2023-05-21T12:04:03;97500.0;;;24.7;63.6
69198;BME280;56311;50.298;8.514;2023-05-21T12:06:03;97500.0;;;25.0;58.9
69198;BME280;56311;50.298;8.514;2023-05-21T12:08:00;97500.0;;;25.0;58.2
69198;BME280;56311;50.298;8.514;2023-05-21T12:10:00;97500.0;;;25.3;58.1
69198;BME280;56311;50.298;8.514;2023-05-21T12:12:00;97500.0;;;25.9;58.1
69198;BME280;56311;50.298;8.514;2023-05-21T12:14:00;97490.0;;;26.0;55.5
69198;BME280;56311;50.298;8.514;2023-05-21T12:16:01;97500.0;;;25.6;56.0
69198;BME280;56311;50.298;8.514;2023-05-21T12:18:00;97490.0;;;25.6;55.5
69198;BME280;56311;50.298;8.514;2023-05-21T12:20:00;97490.0;;;25.9;53.7
69198;BME280;56311;50.298;8.514;2023-05-21T12:22:01;97490.0;;;26.0;53.4
69198;BME280;56311;50.298;8.514;2023-05-21T12:24:01;97500.0;;;26.2;52.3
69198;BME280;56311;50.298;8.514;2023-05-21T12:26:00;97490.0;;;25.8;51.0
69198;BME280;56311;50.298;8.514;2023-05-21T12:28:00;97500.0;;;25.7;52.0
69198;BME280;56311;50.298;8.514;2023-05-21T12:30:00;97490.0;;;26.0;52.8
69198;BME280;56311;50.298;8.514;2023-05-21T12:32:01;97490.0;;;26.2;47.7
69198;BME280;56311;50.298;8.514;2023-05-21T12:34:00;97500.0;;;26.6;50.0
69198;BME280;56311;50.298;8.514;2023-05-21T12:36:00;97490.0;;;25.8;49.8
69198;BME280;56311;50.298;8.514;2023-05-21T12:38:00;97500.0;;;26.3;48.0
69198;BME280;56311;50.298;8.514;2023-05-21T12:40:02;97500.0;;;26.7;49.6
69198;BME280;56311;50.298;8.514;2023-05-21T12:42:01;97490.0;;;26.9;48.0
69198;BME280;56311;50.298;8.514;2023-05-21T12:44:00;97500.0;;;27.0;48.1
69198;BME280;56311;50.298;8.514;2023-05-21T12:46:00;97500.0;;;26.9;47.4
69198;BME280;56311;50.298;8.514;2023-05-21T12:48:01;97490.0;;;27.1;45.5
69198;BME280;56311;50.298;8.514;2023-05-21T12:50:02;97490.0;;;27.4;45.5
69198;BME280;56311;50.298;8.514;2023-05-21T12:52:02;97490.0;;;27.4;44.0
69198;BME280;56311;50.298;8.514;2023-05-21T12:54:00;97490.0;;;27.1;48.0
69198;BME280;56311;50.298;8.514;2023-05-21T12:56:07;97490.0;;;26.6;48.2
69198;BME280;56311;50.298;8.514;2023-05-21T12:58:01;97480.0;;;26.4;46.5
69198;BME280;56311;50.298;8.514;2023-05-21T13:00:01;97490.0;;;27.0;47.9
69198;BME280;56311;50.298;8.514;2023-05-21T13:02:00;97480.0;;;26.4;46.1
69198;BME280;56311;50.298;8.514;2023-05-21T13:04:00;97490.0;;;26.3;45.8
69198;BME280;56311;50.298;8.514;2023-05-21T13:06:00;97480.0;;;26.6;48.5
69198;BME280;56311;50.298;8.514;2023-05-21T13:08:00;97480.0;;;26.6;45.3
69198;BME280;56311;50.298;8.514;2023-05-21T13:10:01;97480.0;;;27.1;46.5
69198;BME280;56311;50.298;8.514;2023-05-21T13:12:00;97480.0;;;26.7;46.5
69198;BME280;56311;50.298;8.514;2023-05-21T13:14:00;97480.0;;;26.2;47.2
69198;BME280;56311;50.298;8.514;2023-05-21T13:16:00;97480.0;;;26.7;46.8
69198;BME280;56311;50.298;8.514;2023-05-21T13:18:00;97480.0;;;26.9;46.5
69198;BME280;56311;50.298;8.514;2023-05-21T13:20:05;97480.0;;;26.8;47.2
69198;BME280;56311;50.298;8.514;2023-05-21T13:22:01;97480.0;;;27.3;45.1
69198;BME280;56311;50.298;8.514;2023-05-21T13:24:00;97470.0;;;27.5;43.6
69198;BME280;56311;50.298;8.514;2023-05-21T13:26:00;97470.0;;;27.9;43.0
69198;BME280;56311;50.298;8.514;2023-05-21T13:28:01;97460.0;;;27.9;43.9
69198;BME280;56311;50.298;8.514;2023-05-21T13:30:00;97460.0;;;27.6;45.3
69198;BME280;56311;50.298;8.514;2023-05-21T13:32:00;97460.0;;;27.5;43.7
69198;BME280;56311;50.298;8.514;2023-05-21T13:34:00;97470.0;;;26.9;43.4
69198;BME280;56311;50.298;8.514;2023-05-21T13:36:00;97470.0;;;26.2;46.2
69198;BME280;56311;50.298;8.514;2023-05-21T13:38:00;97470.0;;;26.0;46.8
69198;BME280;56311;50.298;8.514;2023-05-21T13:40:00;97460.0;;;25.8;47.6
69198;BME280;56311;50.298;8.514;2023-05-21T13:42:00;97460.0;;;25.6;47.9
69198;BME280;56311;50.298;8.514;2023-05-21T13:44:00;97460.0;;;25.5;46.9
69198;BME280;56311;50.298;8.514;2023-05-21T13:46:02;97460.0;;;25.8;48.5
69198;BME280;56311;50.298;8.514;2023-05-21T13:48:01;97460.0;;;25.9;48.4
69198;BME280;56311;50.298;8.514;2023-05-21T13:50:00;97460.0;;;26.2;47.1
69198;BME280;56311;50.298;8.514;2023-05-21T13:52:00;97460.0;;;25.9;46.9
69198;BME280;56311;50.298;8.514;2023-05-21T13:54:00;97460.0;;;25.7;50.6
69198;BME280;56311;50.298;8.514;2023-05-21T13:56:00;97460.0;;;25.0;50.4
69198;BME280;56311;50.298;8.514;2023-05-21T13:58:00;97460.0;;;24.9;50.5
69198;BME280;56311;50.298;8.514;2023-05-21T14:00:00;97460.0;;;24.8;50.3
69198;BME280;56311;50.298;8.514;2023-05-21T14:02:00;97450.0;;;25.5;47.7
69198;BME280;56311;50.298;8.514;2023-05-21T14:04:00;97450.0;;;26.1;46.6
69198;BME280;56311;50.298;8.514;2023-05-21T14:06:00;97450.0;;;26.5;46.5
69198;BME280;56311;50.298;8.514;2023-05-21T14:08:00;97460.0;;;26.9;47.1
69198;BME280;56311;50.298;8.514;2023-05-21T14:10:00;97460.0;;;26.9;42.7
69198;BME280;56311;50.298;8.514;2023-05-21T14:12:00;97460.0;;;27.1;44.4
69198;BME280;56311;50.298;8.514;2023-05-21T14:14:00;97450.0;;;26.9;45.8
69198;BME280;56311;50.298;8.514;2023-05-21T14:16:00;97450.0;;;27.1;44.2
69198;BME280;56311;50.298;8.514;2023-05-21T14:18:00;97440.0;;;27.5;43.8
69198;BME280;56311;50.298;8.514;2023-05-21T14:20:00;97450.0;;;27.4;43.1
69198;BME280;56311;50.298;8.514;2023-05-21T14:22:00;97450.0;;;27.6;45.2
69198;BME280;56311;50.298;8.514;2023-05-21T14:24:00;97450.0;;;27.6;43.5
69198;BME280;56311;50.298;8.514;2023-05-21T14:26:00;97450.0;;;26.9;43.6
69198;BME280;56311;50.298;8.514;2023-05-21T14:28:00;97450.0;;;27.2;44.9
69198;BME280;56311;50.298;8.514;2023-05-21T14:30:00;97440.0;;;27.7;43.3
69198;BME280;56311;50.298;8.514;2023-05-21T14:32:00;97440.0;;;28.2;43.4
69198;BME280;56311;50.298;8.514;2023-05-21T14:34:01;97440.0;;;27.8;42.8
69198;BME280;56311;50.298;8.514;2023-05-21T14:36:00;97440.0;;;27.2;42.8
69198;BME280;56311;50.298;8.514;2023-05-21T14:38:00;97440.0;;;27.5;41.8
69198;BME280;56311;50.298;8.514;2023-05-21T14:40:00;97440.0;;;27.5;42.6
69198;BME280;56311;50.298;8.514;2023-05-21T14:42:01;97440.0;;;27.5;41.0
69198;BME280;56311;50.298;8.514;2023-05-21T14:44:00;97440.0;;;27.4;40.1
69198;BME280;56311;50.298;8.514;2023-05-21T14:46:00;97450.0;;;27.3;40.0
69198;BME280;56311;50.298;8.514;2023-05-21T14:48:00;97450.0;;;27.3;40.7
69198;BME280;56311;50.298;8.514;2023-05-21T14:50:00;97450.0;;;27.1;40.8
69198;BME280;56311;50.298;8.514;2023-05-21T14:52:00;97450.0;;;27.1;40.9
69198;BME280;56311;50.298;8.514;2023-05-21T14:54:00;97450.0;;;26.8;41.8
69198;BME280;56311;50.298;8.514;2023-05-21T14:56:00;97450.0;;;26.8;41.8
69198;BME280;56311;50.298;8.514;2023-05-21T14:58:01;97450.0;;;26.6;43.8
69198;BME280;56311;50.298;8.514;2023-05-21T15:00:00;97450.0;;;26.6;44.3
69198;BME280;56311;50.298;8.514;2023-05-21T15:02:00;97450.0;;;26.3;44.0
69198;BME280;56311;50.298;8.514;2023-05-21T15:04:00;97450.0;;;25.9;45.1
69198;BME280;56311;50.298;8.514;2023-05-21T15:06:00;97450.0;;;25.7;45.0
69198;BME280;56311;50.298;8.514;2023-05-21T15:08:00;97450.0;;;25.6;44.0
69198;BME280;56311;50.298;8.514;2023-05-21T15:10:00;97450.0;;;25.9;42.9
69198;BME280;56311;50.298;8.514;2023-05-21T15:12:00;97450.0;;;26.2;43.7
69198;BME280;56311;50.298;8.514;2023-05-21T15:14:00;97450.0;;;26.1;42.9
69198;BME280;56311;50.298;8.514;2023-05-21T15:16:00;97450.0;;;26.1;42.2
69198;BME280;56311;50.298;8.514;2023-05-21T15:18:00;97450.0;;;26.3;41.7
69198;BME280;56311;50.298;8.514;2023-05-21T15:20:00;97450.0;;;26.0;43.0
69198;BME280;56311;50.298;8.514;2023-05-21T15:22:00;97450.0;;;25.8;42.9
69198;BME280;56311;50.298;8.514;2023-05-21T15:24:00;97450.0;;;26.0;43.6
69198;BME280;56311;50.298;8.514;2023-05-21T15:26:00;97450.0;;;26.0;41.9
69198;BME280;56311;50.298;8.514;2023-05-21T15:28:00;97440.0;;;26.2;42.7
69198;BME280;56311;50.298;8.514;2023-05-21T15:30:00;97440.0;;;26.5;43.2
69198;BME280;56311;50.298;8.514;2023-05-21T15:32:00;97440.0;;;26.6;41.7
69198;BME280;56311;50.298;8.514;2023-05-21T15:34:00;97440.0;;;27.0;41.0
69198;BME280;56311;50.298;8.514;2023-05-21T15:36:00;97440.0;;;27.1;41.4
69198;BME280;56311;50.298;8.514;2023-05-21T15:38:00;97430.0;;;27.4;40.3
69198;BME280;56311;50.298;8.514;2023-05-21T15:40:00;97430.0;;;27.3;41.2
69198;BME280;56311;50.298;8.514;2023-05-21T15:42:00;97430.0;;;27.5;41.2
69198;BME280;56311;50.298;8.514;2023-05-21T15:44:00;97430.0;;;27.6;40.2
69198;BME280;56311;50.298;8.514;2023-05-21T15:46:00;97420.0;;;27.8;40.4
69198;BME280;56311;50.298;8.514;2023-05-21T15:48:00;97420.0;;;28.1;39.3
69198;BME280;56311;50.298;8.514;2023-05-21T15:50:00;97420.0;;;28.2;38.7
69198;BME280;56311;50.298;8.514;2023-05-21T15:52:01;97420.0;;;28.0;38.8
69198;BME280;56311;50.298;8.514;2023-05-21T15:54:00;97420.0;;;28.0;38.3
69198;BME280;56311;50.298;8.514;2023-05-21T15:56:00;97420.0;;;27.5;38.2
69198;BME280;56311;50.298;8.514;2023-05-21T15:58:01;97410.0;;;27.5;38.6
69198;BME280;56311;50.298;8.514;2023-05-21T16:00:00;97420.0;;;27.5;38.0
69198;BME280;56311;50.298;8.514;2023-05-21T16:02:00;97410.0;;;27.4;37.3
69198;BME280;56311;50.298;8.514;2023-05-21T16:04:00;97410.0;;;27.5;37.4
69198;BME280;56311;50.298;8.514;2023-05-21T16:06:00;97410.0;;;27.1;37.2
69198;BME280;56311;50.298;8.514;2023-05-21T16:08:00;97410.0;;;27.0;37.4
69198;BME280;56311;50.298;8.514;2023-05-21T16:10:00;97400.0;;;27.1;37.5
69198;BME280;56311;50.298;8.514;2023-05-21T16:12:00;97410.0;;;27.1;37.8
69198;BME280;56311;50.298;8.514;2023-05-21T16:14:00;97410.0;;;27.5;37.9
69198;BME280;56311;50.298;8.514;2023-05-21T16:16:00;97410.0;;;27.6;38.1
69198;BME280;56311;50.298;8.514;2023-05-21T16:18:00;97400.0;;;27.5;39.6
69198;BME280;56311;50.298;8.514;2023-05-21T16:20:00;97400.0;;;27.3;39.8
69198;BME280;56311;50.298;8.514;2023-05-21T16:22:00;97410.0;;;27.0;40.5
69198;BME280;56311;50.298;8.514;2023-05-21T16:24:00;97410.0;;;26.6;41.4
69198;BME280;56311;50.298;8.514;2023-05-21T16:26:00;97410.0;;;26.3;41.5
69198;BME280;56311;50.298;8.514;2023-05-21T16:28:00;97410.0;;;26.2;41.3
69198;BME280;56311;50.298;8.514;2023-05-21T16:30:00;97410.0;;;26.2;41.6
69198;BME280;56311;50.298;8.514;2023-05-21T16:32:00;97410.0;;;25.9;42.2
69198;BME280;56311;50.298;8.514;2023-05-21T16:34:00;97410.0;;;25.9;44.1
69198;BME280;56311;50.298;8.514;2023-05-21T16:36:00;97410.0;;;25.8;41.4
69198;BME280;56311;50.298;8.514;2023-05-21T16:38:00;97410.0;;;25.7;42.9
69198;BME280;56311;50.298;8.514;2023-05-21T16:40:00;97410.0;;;25.5;42.1
69198;BME280;56311;50.298;8.514;2023-05-21T16:42:00;97410.0;;;25.4;41.8
69198;BME280;56311;50.298;8.514;2023-05-21T16:44:00;97410.0;;;25.2;42.9
69198;BME280;56311;50.298;8.514;2023-05-21T16:46:00;97410.0;;;25.4;42.4
69198;BME280;56311;50.298;8.514;2023-05-21T16:48:00;97410.0;;;25.4;42.1
69198;BME280;56311;50.298;8.514;2023-05-21T16:50:00;97410.0;;;25.2;41.3
69198;BME280;56311;50.298;8.514;2023-05-21T16:52:00;97410.0;;;25.1;42.7
69198;BME280;56311;50.298;8.514;2023-05-21T16:54:00;97410.0;;;25.0;42.7
69198;BME280;56311;50.298;8.514;2023-05-21T16:56:00;97410.0;;;24.9;43.7
69198;BME280;56311;50.298;8.514;2023-05-21T16:58:01;97410.0;;;24.9;44.6
69198;BME280;56311;50.298;8.514;2023-05-21T17:00:00;97410.0;;;24.6;43.5
69198;BME280;56311;50.298;8.514;2023-05-21T17:02:00;97410.0;;;24.6;44.8
69198;BME280;56311;50.298;8.514;2023-05-21T17:04:00;97410.0;;;24.6;43.9
69198;BME280;56311;50.298;8.514;2023-05-21T17:06:00;97410.0;;;24.6;44.3
69198;BME280;56311;50.298;8.514;2023-05-21T17:08:00;97410.0;;;24.6;43.5
69198;BME280;56311;50.298;8.514;2023-05-21T17:10:00;97410.0;;;24.5;46.0
69198;BME280;56311;50.298;8.514;2023-05-21T17:12:00;97420.0;;;24.4;44.7
69198;BME280;56311;50.298;8.514;2023-05-21T17:14:00;97410.0;;;24.4;45.2
69198;BME280;56311;50.298;8.514;2023-05-21T17:16:00;97410.0;;;24.4;45.2
69198;BME280;56311;50.298;8.514;2023-05-21T17:18:00;97410.0;;;24.4;44.7
69198;BME280;56311;50.298;8.514;2023-05-21T17:20:01;97420.0;;;24.3;48.0
69198;BME280;56311;50.298;8.514;2023-05-21T17:22:00;97420.0;;;24.3;46.3
69198;BME280;56311;50.298;8.514;2023-05-21T17:24:00;97420.0;;;24.2;49.6
69198;BME280;56311;50.298;8.514;2023-05-21T17:26:00;97420.0;;;24.1;47.9
69198;BME280;56311;50.298;8.514;2023-05-21T17:28:01;97420.0;;;24.1;48.9
69198;BME280;56311;50.298;8.514;2023-05-21T17:30:00;97420.0;;;24.1;49.9
69198;BME280;56311;50.298;8.514;2023-05-21T17:32:00;97420.0;;;24.0;47.9
69198;BME280;56311;50.298;8.514;2023-05-21T17:34:00;97420.0;;;23.9;48.9
69198;BME280;56311;50.298;8.514;2023-05-21T17:36:00;97420.0;;;23.9;48.9
69198;BME280;56311;50.298;8.514;2023-05-21T17:38:00;97420.0;;;23.8;49.9
69198;BME280;56311;50.298;8.514;2023-05-21T17:40:00;97420.0;;;23.9;52.1
69198;BME280;56311;50.298;8.514;2023-05-21T17:42:00;97420.0;;;23.8;49.5
69198;BME280;56311;50.298;8.514;2023-05-21T17:44:00;97420.0;;;23.7;47.4
69198;BME280;56311;50.298;8.514;2023-05-21T17:46:00;97420.0;;;23.7;49.8
69198;BME280;56311;50.298;8.514;2023-05-21T17:48:00;97430.0;;;23.7;50.6
69198;BME280;56311;50.298;8.514;2023-05-21T17:50:00;97430.0;;;23.6;53.8
69198;BME280;56311;50.298;8.514;2023-05-21T17:52:00;97430.0;;;23.5;54.5
69198;BME280;56311;50.298;8.514;2023-05-21T17:54:00;97430.0;;;23.4;53.2
69198;BME280;56311;50.298;8.514;2023-05-21T17:56:00;97430.0;;;23.4;53.4
69198;BME280;56311;50.298;8.514;2023-05-21T17:58:00;97420.0;;;23.3;53.4
69198;BME280;56311;50.298;8.514;2023-05-21T18:00:00;97430.0;;;23.2;54.1
69198;BME280;56311;50.298;8.514;2023-05-21T18:02:00;97430.0;;;23.2;51.7
69198;BME280;56311;50.298;8.514;2023-05-21T18:04:01;97430.0;;;23.2;56.9
69198;BME280;56311;50.298;8.514;2023-05-21T18:06:00;97430.0;;;23.1;56.7
69198;BME280;56311;50.298;8.514;2023-05-21T18:08:00;97420.0;;;23.0;58.6
69198;BME280;56311;50.298;8.514;2023-05-21T18:10:00;97430.0;;;22.9;56.7
69198;BME280;56311;50.298;8.514;2023-05-21T18:12:01;97430.0;;;22.8;59.2
69198;BME280;56311;50.298;8.514;2023-05-21T18:14:00;97430.0;;;22.6;59.4
69198;BME280;56311;50.298;8.514;2023-05-21T18:16:00;97430.0;;;22.5;60.1
69198;BME280;56311;50.298;8.514;2023-05-21T18:18:01;97430.0;;;22.4;61.0
69198;BME280;56311;50.298;8.514;2023-05-21T18:20:01;97430.0;;;22.3;59.8
69198;BME280;56311;50.298;8.514;2023-05-21T18:22:00;97430.0;;;22.2;60.5
69198;BME280;56311;50.298;8.514;2023-05-21T18:24:00;97430.0;;;22.2;59.5
69198;BME280;56311;50.298;8.514;2023-05-21T18:26:00;97440.0;;;22.2;60.0
69198;BME280;56311;50.298;8.514;2023-05-21T18:28:00;97430.0;;;22.1;59.9
69198;BME280;56311;50.298;8.514;2023-05-21T18:30:00;97430.0;;;22.0;59.6
69198;BME280;56311;50.298;8.514;2023-05-21T18:32:00;97440.0;;;22.0;61.2
69198;BME280;56311;50.298;8.514;2023-05-21T18:34:00;97440.0;;;21.9;62.0
69198;BME280;56311;50.298;8.514;2023-05-21T18:36:00;97440.0;;;21.7;65.4
69198;BME280;56311;50.298;8.514;2023-05-21T18:38:00;97440.0;;;21.6;67.1
69198;BME280;56311;50.298;8.514;2023-05-21T18:40:00;97440.0;;;21.5;69.3
69198;BME280;56311;50.298;8.514;2023-05-21T18:42:00;97440.0;;;21.4;69.6
69198;BME280;56311;50.298;8.514;2023-05-21T18:44:00;97440.0;;;21.2;70.3
69198;BME280;56311;50.298;8.514;2023-05-21T18:46:00;97430.0;;;21.1;72.1
69198;BME280;56311;50.298;8.514;2023-05-21T18:48:00;97430.0;;;21.0;72.6
69198;BME280;56311;50.298;8.514;2023-05-21T18:50:00;97440.0;;;21.0;74.9
69198;BME280;56311;50.298;8.514;2023-05-21T18:52:00;97430.0;;;20.8;76.2
69198;BME280;56311;50.298;8.514;2023-05-21T18:54:00;97430.0;;;20.7;76.8
69198;BME280;56311;50.298;8.514;2023-05-21T18:56:00;97440.0;;;20.6;77.8
69198;BME280;56311;50.298;8.514;2023-05-21T18:58:00;97440.0;;;20.5;76.8
69198;BME280;56311;50.298;8.514;2023-05-21T19:00:00;97440.0;;;20.4;78.5
69198;BME280;56311;50.298;8.514;2023-05-21T19:02:01;97440.0;;;20.3;79.3
69198;BME280;56311;50.298;8.514;2023-05-21T19:04:00;97440.0;;;20.2;80.3
69198;BME280;56311;50.298;8.514;2023-05-21T19:06:00;97440.0;;;20.0;78.8
69198;BME280;56311;50.298;8.514;2023-05-21T19:08:00;97440.0;;;19.9;79.8
69198;BME280;56311;50.298;8.514;2023-05-21T19:10:00;97440.0;;;19.8;80.4
69198;BME280;56311;50.298;8.514;2023-05-21T19:12:00;97440.0;;;19.6;81.7
69198;BME280;56311;50.298;8.514;2023-05-21T19:14:00;97450.0;;;19.6;82.3
69198;BME280;56311;50.298;8.514;2023-05-21T19:16:00;97440.0;;;19.5;82.5
69198;BME280;56311;50.298;8.514;2023-05-21T19:18:00;97440.0;;;19.4;84.2
69198;BME280;56311;50.298;8.514;2023-05-21T19:20:00;97440.0;;;19.3;84.6
69198;BME280;56311;50.298;8.514;2023-05-21T19:22:00;97450.0;;;19.2;84.9
69198;BME280;56311;50.298;8.514;2023-05-21T19:24:00;97440.0;;;19.1;85.6
69198;BME280;56311;50.298;8.514;2023-05-21T19:26:00;97440.0;;;19.0;85.8
69198;BME280;56311;50.298;8.514;2023-05-21T19:28:00;97440.0;;;18.9;85.4
69198;BME280;56311;50.298;8.514;2023-05-21T19:30:00;97440.0;;;18.8;86.1
69198;BME280;56311;50.298;8.514;2023-05-21T19:32:00;97440.0;;;18.7;86.5
69198;BME280;56311;50.298;8.514;2023-05-21T19:34:00;97440.0;;;18.6;87.8
69198;BME280;56311;50.298;8.514;2023-05-21T19:36:00;97450.0;;;18.5;89.4
69198;BME280;56311;50.298;8.514;2023-05-21T19:38:00;97450.0;;;18.4;89.5
69198;BME280;56311;50.298;8.514;2023-05-21T19:40:00;97450.0;;;18.3;89.1
69198;BME280;56311;50.298;8.514;2023-05-21T19:42:00;97460.0;;;18.3;89.4
69198;BME280;56311;50.298;8.514;2023-05-21T19:44:00;97460.0;;;18.2;90.2
69198;BME280;56311;50.298;8.514;2023-05-21T19:46:00;97460.0;;;18.1;89.6
69198;BME280;56311;50.298;8.514;2023-05-21T19:48:00;97460.0;;;18.0;86.2